Time;durP1;ratioP1;P1;durP2;ratioP2;P2;SDS_P1;SDS_P2;PMS_P1;PMS_P2;Temp;Humidity;BMP_temperature;BMP_pressure;BME280_temperature;BME280_humidity;BME280_pressure;Samples;Min_cycle;Max_cycle;Signal;HPM_P1;HPM_P2
2024/02/06 00:00:28;;;;;;;3.00;2.13;;;21.30;54.20;;;;;;5054353;28;20932;-67
2024/02/06 00:02:53;;;;;;;3.90;2.13;;;21.30;54.20;;;;;;5053619;28;20253;-68
2024/02/06 00:05:20;;;;;;;2.47;1.80;;;21.30;54.20;;;;;;5054321;28;20239;-67
2024/02/06 00:07:45;;;;;;;3.40;2.30;;;21.30;54.20;;;;;;5054487;28;20722;-68
2024/02/06 00:10:12;;;;;;;2.43;1.87;;;21.30;54.20;;;;;;5053091;28;20965;-68
2024/02/06 00:12:37;;;;;;;2.83;2.00;;;21.30;54.20;;;;;;5054615;28;20179;-67
2024/02/06 00:15:04;;;;;;;2.23;1.67;;;21.30;54.30;;;;;;5052879;28;20480;-68
2024/02/06 00:17:29;;;;;;;2.37;1.90;;;21.30;54.20;;;;;;5054380;28;20163;-68
2024/02/06 00:19:55;;;;;;;2.60;1.80;;;21.30;54.20;;;;;;5053093;28;20551;-69
2024/02/06 00:22:20;;;;;;;2.50;1.90;;;21.30;54.20;;;;;;5052832;28;20286;-68
2024/02/06 00:24:49;;;;;;;2.80;1.90;;;21.20;54.20;;;;;;5036396;28;20518;-69
2024/02/06 00:27:14;;;;;;;2.07;1.77;;;21.20;54.20;;;;;;5054067;28;20170;-69
2024/02/06 00:29:40;;;;;;;2.60;1.93;;;21.20;54.20;;;;;;5054357;28;20406;-69
2024/02/06 00:32:06;;;;;;;2.33;1.90;;;21.20;54.20;;;;;;5054168;28;20229;-69
2024/02/06 00:34:32;;;;;;;2.27;1.90;;;21.20;54.20;;;;;;5052451;28;20175;-68
2024/02/06 00:36:57;;;;;;;3.10;2.00;;;21.20;54.20;;;;;;5053846;28;20974;-69
2024/02/06 00:39:24;;;;;;;1.97;1.70;;;21.20;54.20;;;;;;5053818;28;20178;-69
2024/02/06 00:41:50;;;;;;;1.90;1.70;;;21.20;54.20;;;;;;5052456;28;20199;-69
2024/02/06 00:44:17;;;;;;;3.57;1.73;;;21.20;54.20;;;;;;5053749;28;20901;-68
2024/02/06 00:46:43;;;;;;;3.30;2.23;;;21.20;54.20;;;;;;5053858;28;20203;-67
2024/02/06 00:49:08;;;;;;;2.30;1.90;;;21.20;54.20;;;;;;5053591;28;20932;-69
2024/02/06 00:51:34;;;;;;;2.00;1.80;;;21.20;54.20;;;;;;5053573;28;20281;-68
2024/02/06 00:54:00;;;;;;;1.90;1.63;;;21.20;54.20;;;;;;5052072;28;20915;-68
2024/02/06 00:56:26;;;;;;;3.93;1.73;;;21.20;54.20;;;;;;5053438;28;20222;-70
2024/02/06 00:58:52;;;;;;;3.00;1.93;;;21.20;54.20;;;;;;5053125;28;20955;-69
2024/02/06 01:01:17;;;;;;;2.30;1.97;;;21.20;54.20;;;;;;5053139;28;20450;-69
2024/02/06 01:03:43;;;;;;;1.97;1.60;;;21.20;54.20;;;;;;5053426;28;20254;-69
2024/02/06 01:06:10;;;;;;;2.60;1.77;;;21.20;54.30;;;;;;5053441;28;20205;-69
2024/02/06 01:08:36;;;;;;;2.47;1.60;;;21.20;54.20;;;;;;5053511;28;20210;-69
2024/02/06 01:11:01;;;;;;;2.73;1.70;;;21.20;54.30;;;;;;5053136;28;20499;-69
2024/02/06 01:13:27;;;;;;;2.43;1.60;;;21.20;54.20;;;;;;5053221;28;20179;-69
2024/02/06 01:15:52;;;;;;;2.23;1.90;;;21.20;54.20;;;;;;5053210;28;20207;-69
2024/02/06 01:18:18;;;;;;;3.20;1.90;;;21.20;54.20;;;;;;5053399;28;20178;-69
2024/02/06 01:20:43;;;;;;;2.17;1.67;;;21.20;54.30;;;;;;5052990;28;20746;-69
2024/02/06 01:23:09;;;;;;;2.07;1.37;;;21.20;54.20;;;;;;5053189;28;20171;-68
2024/02/06 01:25:35;;;;;;;2.13;1.93;;;21.10;54.10;;;;;;5052279;28;20171;-68
2024/02/06 01:28:01;;;;;;;2.40;1.87;;;21.10;54.10;;;;;;5053261;28;20186;-68
2024/02/06 01:30:26;;;;;;;2.37;1.90;;;21.10;54.20;;;;;;5052773;28;20201;-69
2024/02/06 01:32:52;;;;;;;2.20;1.80;;;21.10;54.10;;;;;;5052773;28;20402;-69
2024/02/06 01:35:18;;;;;;;2.07;1.63;;;21.10;54.20;;;;;;5053101;28;20685;-69
2024/02/06 01:37:44;;;;;;;2.10;1.90;;;21.10;54.10;;;;;;5053182;28;20173;-68
2024/02/06 01:40:10;;;;;;;2.63;1.80;;;21.10;54.10;;;;;;5052841;28;20406;-68
2024/02/06 01:42:36;;;;;;;2.40;1.80;;;21.10;54.20;;;;;;5052795;28;20219;-69
2024/02/06 01:45:01;;;;;;;3.20;1.80;;;21.10;54.20;;;;;;5053344;28;20445;-70
2024/02/06 01:47:27;;;;;;;2.33;1.67;;;21.10;54.20;;;;;;5053135;28;20569;-67
2024/02/06 01:49:55;;;;;;;2.13;1.67;;;21.10;54.20;;;;;;5052760;28;20175;-68
2024/02/06 01:52:21;;;;;;;3.83;1.87;;;21.10;54.20;;;;;;5052350;28;20421;-67
2024/02/06 01:54:47;;;;;;;2.13;1.80;;;21.10;54.20;;;;;;5052794;28;20441;-68
2024/02/06 01:57:14;;;;;;;2.27;2.07;;;21.10;54.10;;;;;;5051277;28;20948;-69
2024/02/06 01:59:40;;;;;;;2.40;1.90;;;21.10;54.20;;;;;;5053063;28;20436;-68
2024/02/06 02:02:07;;;;;;;2.93;1.80;;;21.10;54.20;;;;;;5052379;28;20417;-68
2024/02/06 02:04:33;;;;;;;2.40;1.70;;;21.10;54.20;;;;;;5052763;28;20433;-68
2024/02/06 02:07:00;;;;;;;2.00;1.50;;;21.10;54.20;;;;;;5052772;28;20416;-69
2024/02/06 02:09:26;;;;;;;3.33;1.60;;;21.10;54.20;;;;;;5052247;28;20410;-68
2024/02/06 02:11:52;;;;;;;2.27;1.70;;;21.10;54.20;;;;;;5052443;28;21023;-69
2024/02/06 02:14:17;;;;;;;2.23;1.87;;;21.10;54.20;;;;;;5052340;28;20508;-68
2024/02/06 02:16:44;;;;;;;1.70;1.60;;;21.10;54.20;;;;;;5052575;28;20281;-68
2024/02/06 02:19:10;;;;;;;2.60;1.80;;;21.10;54.20;;;;;;5052482;28;20171;-69
2024/02/06 02:21:37;;;;;;;2.23;1.57;;;21.10;54.20;;;;;;5052315;28;20435;-69
2024/02/06 02:24:03;;;;;;;1.70;1.50;;;21.10;54.20;;;;;;5052737;28;20174;-69
2024/02/06 02:26:30;;;;;;;2.40;1.80;;;21.10;54.20;;;;;;5052839;28;20410;-69
2024/02/06 02:28:57;;;;;;;1.93;1.60;;;21.10;54.20;;;;;;5052240;28;20402;-69
2024/02/06 02:31:23;;;;;;;2.07;1.80;;;21.10;54.20;;;;;;5052276;28;20461;-67
2024/02/06 02:33:49;;;;;;;2.37;1.90;;;21.10;54.20;;;;;;5051189;28;20512;-69
2024/02/06 02:36:15;;;;;;;3.40;1.77;;;21.10;54.20;;;;;;5052819;28;20481;-68
2024/02/06 02:38:42;;;;;;;2.00;1.50;;;21.10;54.20;;;;;;5056690;28;20441;-68
2024/02/06 02:41:07;;;;;;;3.23;1.80;;;21.10;54.20;;;;;;5056401;28;20202;-68
2024/02/06 02:43:33;;;;;;;2.10;1.87;;;21.10;54.20;;;;;;5056197;28;20405;-68
2024/02/06 02:45:59;;;;;;;2.23;1.77;;;21.10;54.20;;;;;;5056193;28;20167;-69
2024/02/06 02:48:24;;;;;;;3.23;2.43;;;21.10;54.20;;;;;;5056420;28;20175;-69
2024/02/06 02:50:50;;;;;;;2.03;1.57;;;21.10;54.20;;;;;;5056230;28;20195;-68
2024/02/06 02:53:16;;;;;;;2.07;1.57;;;21.10;54.20;;;;;;5056269;28;20592;-68
2024/02/06 02:55:41;;;;;;;2.70;1.90;;;21.10;54.20;;;;;;5056305;28;20202;-68
2024/02/06 02:58:07;;;;;;;1.60;1.40;;;21.10;54.20;;;;;;5056306;28;20175;-68
2024/02/06 03:00:35;;;;;;;2.27;1.30;;;21.10;54.20;;;;;;5056101;28;20530;-68
2024/02/06 03:03:01;;;;;;;2.50;1.50;;;21.10;54.20;;;;;;5056329;28;20903;-68
2024/02/06 03:05:27;;;;;;;2.10;1.60;;;21.10;54.20;;;;;;5056336;28;20418;-69
2024/02/06 03:07:53;;;;;;;1.70;1.60;;;21.10;54.20;;;;;;5055705;28;20772;-68
2024/02/06 03:10:18;;;;;;;2.93;1.50;;;21.10;54.20;;;;;;5055869;28;20175;-68
2024/02/06 03:12:44;;;;;;;3.37;1.77;;;21.10;54.20;;;;;;5055878;28;20178;-68
2024/02/06 03:15:10;;;;;;;1.80;1.60;;;21.00;54.10;;;;;;5055309;28;20210;-68
2024/02/06 03:17:35;;;;;;;3.27;1.87;;;21.00;54.10;;;;;;5055766;28;20244;-68
2024/02/06 03:20:04;;;;;;;2.50;1.80;;;21.10;54.20;;;;;;5055930;28;20452;-68
2024/02/06 03:22:31;;;;;;;2.30;1.50;;;21.00;54.10;;;;;;5055724;28;20175;-68
2024/02/06 03:24:57;;;;;;;2.13;1.40;;;21.00;54.10;;;;;;5055656;28;20405;-69
2024/02/06 03:27:23;;;;;;;1.80;1.60;;;21.00;54.10;;;;;;5055260;28;20414;-69
2024/02/06 03:29:48;;;;;;;3.27;1.93;;;21.00;54.10;;;;;;5055885;28;20175;-68
2024/02/06 03:32:14;;;;;;;2.03;1.60;;;21.00;54.10;;;;;;5055722;28;20282;-68
2024/02/06 03:34:40;;;;;;;2.13;1.50;;;21.00;54.10;;;;;;5055845;28;20552;-69
2024/02/06 03:37:05;;;;;;;2.40;1.83;;;21.00;54.20;;;;;;5055535;28;20250;-69
2024/02/06 03:39:31;;;;;;;2.53;1.60;;;21.00;54.10;;;;;;5055565;28;20179;-68
2024/02/06 03:41:57;;;;;;;1.80;1.13;;;21.00;54.10;;;;;;5055467;28;20198;-69
2024/02/06 03:44:22;;;;;;;2.80;2.10;;;21.00;54.20;;;;;;5055639;28;20167;-67
2024/02/06 03:46:48;;;;;;;1.60;1.40;;;21.00;54.10;;;;;;5055068;28;20225;-69
2024/02/06 03:49:14;;;;;;;2.30;1.43;;;21.00;54.10;;;;;;5054549;28;20171;-68
2024/02/06 03:51:39;;;;;;;3.00;1.60;;;21.00;54.10;;;;;;5055190;28;20270;-68
2024/02/06 03:54:05;;;;;;;3.20;1.80;;;21.00;54.20;;;;;;5053592;28;20676;-68
2024/02/06 03:56:31;;;;;;;2.10;1.80;;;21.00;54.10;;;;;;5055143;28;20206;-68
2024/02/06 03:58:56;;;;;;;2.30;1.90;;;21.00;54.10;;;;;;5055161;28;20593;-70
2024/02/06 04:01:22;;;;;;;2.63;2.07;;;21.00;54.10;;;;;;5054905;28;20189;-69
2024/02/06 04:03:47;;;;;;;2.40;1.70;;;21.00;54.10;;;;;;5054337;28;20242;-68
2024/02/06 04:06:14;;;;;;;4.60;1.80;;;21.00;54.10;;;;;;5055004;28;20182;-68
2024/02/06 04:08:43;;;;;;;3.70;1.67;;;21.00;54.10;;;;;;5054955;28;20552;-69
2024/02/06 04:11:11;;;;;;;1.47;1.20;;;21.00;54.20;;;;;;5054216;28;20429;-69
2024/02/06 04:13:37;;;;;;;1.93;1.70;;;21.00;54.20;;;;;;5054719;28;20413;-69
2024/02/06 04:16:04;;;;;;;2.77;1.57;;;21.00;54.20;;;;;;5054428;28;21061;-69
2024/02/06 04:18:30;;;;;;;1.60;1.50;;;21.00;54.20;;;;;;5054507;28;20405;-69
2024/02/06 04:20:56;;;;;;;1.93;1.60;;;21.00;54.20;;;;;;5054120;28;20512;-68
2024/02/06 04:23:22;;;;;;;2.90;2.00;;;21.00;54.20;;;;;;5055451;28;20179;-68
2024/02/06 04:25:47;;;;;;;2.73;1.90;;;21.00;54.20;;;;;;5054607;28;20548;-69
2024/02/06 04:28:13;;;;;;;2.07;1.33;;;21.00;54.20;;;;;;5054393;28;20175;-68
2024/02/06 04:30:38;;;;;;;2.00;1.50;;;21.00;54.30;;;;;;5054530;28;20678;-68
2024/02/06 04:33:04;;;;;;;2.37;1.40;;;21.00;54.20;;;;;;5054514;28;20171;-68
2024/02/06 04:35:30;;;;;;;1.90;1.60;;;21.00;54.20;;;;;;5053701;28;20263;-68
2024/02/06 04:37:55;;;;;;;1.97;1.70;;;21.00;54.20;;;;;;5054115;28;20449;-68
2024/02/06 04:40:22;;;;;;;2.23;1.50;;;21.00;54.70;;;;;;5053918;28;20182;-68
2024/02/06 04:42:47;;;;;;;1.90;1.57;;;21.00;54.20;;;;;;5054248;28;20665;-69
2024/02/06 04:45:13;;;;;;;2.47;1.43;;;20.90;54.10;;;;;;5053973;28;20421;-68
2024/02/06 04:47:39;;;;;;;2.07;1.40;;;20.90;54.10;;;;;;5053893;28;20179;-67
2024/02/06 04:50:05;;;;;;;1.70;1.40;;;21.00;54.20;;;;;;5053635;28;20175;-68
2024/02/06 04:52:32;;;;;;;1.50;1.40;;;20.90;54.10;;;;;;5054069;28;20567;-68
2024/02/06 04:54:58;;;;;;;2.10;1.40;;;20.90;54.10;;;;;;5053939;28;20466;-69
2024/02/06 04:57:24;;;;;;;2.03;1.50;;;20.90;54.10;;;;;;5054084;28;20440;-68
2024/02/06 04:59:50;;;;;;;2.07;1.30;;;20.90;54.10;;;;;;5051588;28;20417;-69
2024/02/06 05:02:15;;;;;;;1.50;1.20;;;20.90;54.10;;;;;;5053745;28;20451;-68
2024/02/06 05:04:41;;;;;;;2.13;1.83;;;20.90;54.10;;;;;;5053691;28;20524;-69
2024/02/06 05:07:06;;;;;;;1.97;1.50;;;21.00;54.20;;;;;;5053721;28;20225;-69
2024/02/06 05:09:32;;;;;;;2.03;1.60;;;20.90;54.10;;;;;;5053289;28;20658;-69
2024/02/06 05:12:01;;;;;;;1.60;1.47;;;21.00;54.20;;;;;;5053650;28;20248;-68
2024/02/06 05:14:28;;;;;;;1.50;1.30;;;20.90;54.10;;;;;;5053646;28;20175;-68
2024/02/06 05:16:54;;;;;;;2.30;1.43;;;20.90;54.10;;;;;;5053551;28;20883;-68
2024/02/06 05:19:20;;;;;;;2.80;1.67;;;21.00;54.20;;;;;;5035422;28;20496;-69
2024/02/06 05:21:46;;;;;;;1.80;1.47;;;21.00;54.20;;;;;;5053412;28;20686;-69
2024/02/06 05:24:12;;;;;;;1.40;1.30;;;21.00;54.20;;;;;;5053442;28;20425;-68
2024/02/06 05:26:37;;;;;;;1.57;1.30;;;21.00;54.20;;;;;;5053350;28;20931;-68
2024/02/06 05:29:03;;;;;;;1.70;1.40;;;21.00;54.20;;;;;;5053540;28;20725;-67
2024/02/06 05:31:29;;;;;;;1.80;1.40;;;21.00;54.20;;;;;;5051903;28;20187;-69
2024/02/06 05:33:55;;;;;;;3.10;1.50;;;21.00;54.20;;;;;;5052025;28;20409;-68
2024/02/06 05:36:20;;;;;;;2.00;1.60;;;21.00;54.20;;;;;;5051593;28;20232;-69
2024/02/06 05:38:46;;;;;;;1.60;1.37;;;21.00;54.20;;;;;;5051997;28;20548;-67
2024/02/06 05:41:12;;;;;;;2.27;1.60;;;21.00;54.20;;;;;;5051717;28;20269;-69
2024/02/06 05:43:39;;;;;;;1.40;1.20;;;21.00;54.20;;;;;;5051532;28;20254;-69
2024/02/06 05:46:04;;;;;;;2.87;1.83;;;21.00;54.10;;;;;;5050467;28;20559;-69
2024/02/06 05:48:30;;;;;;;2.03;1.60;;;21.00;54.10;;;;;;5051679;28;20897;-68
2024/02/06 05:50:56;;;;;;;2.10;1.73;;;21.00;54.10;;;;;;5051560;28;20191;-68
2024/02/06 05:53:21;;;;;;;1.70;1.40;;;21.00;54.10;;;;;;5051853;28;20646;-68
2024/02/06 05:55:47;;;;;;;1.60;1.40;;;21.00;54.10;;;;;;5051437;28;20198;-68
2024/02/06 05:58:13;;;;;;;2.20;1.70;;;21.00;54.10;;;;;;5051666;28;20733;-68
2024/02/06 06:00:38;;;;;;;1.97;1.40;;;21.00;54.10;;;;;;5050174;28;20190;-67
2024/02/06 06:03:04;;;;;;;2.30;1.90;;;21.00;54.10;;;;;;5051406;28;20254;-67
2024/02/06 06:05:30;;;;;;;2.00;1.47;;;21.00;54.20;;;;;;5051475;28;20186;-69
2024/02/06 06:07:55;;;;;;;1.70;1.40;;;21.00;54.10;;;;;;5051473;28;20409;-69
2024/02/06 06:10:21;;;;;;;4.13;1.77;;;21.00;54.10;;;;;;5051686;28;20175;-68
2024/02/06 06:12:47;;;;;;;2.23;2.00;;;21.00;54.20;;;;;;5051538;28;20221;-69
2024/02/06 06:15:13;;;;;;;1.83;1.53;;;21.00;54.20;;;;;;5050992;28;20245;-69
2024/02/06 06:17:38;;;;;;;2.80;1.93;;;21.10;54.20;;;;;;5051824;28;20253;-69
2024/02/06 06:20:05;;;;;;;2.60;1.73;;;21.00;54.20;;;;;;5051386;28;20500;-69
2024/02/06 06:22:31;;;;;;;1.77;1.37;;;21.10;54.30;;;;;;5051823;28;20179;-69
2024/02/06 06:24:56;;;;;;;2.33;1.80;;;21.10;54.20;;;;;;5051567;28;20405;-69
2024/02/06 06:27:22;;;;;;;3.93;1.40;;;21.10;54.80;;;;;;5051140;28;20182;-69
2024/02/06 06:29:48;;;;;;;2.80;1.63;;;21.10;54.20;;;;;;5051561;28;20174;-69
2024/02/06 06:32:13;;;;;;;1.97;1.60;;;21.10;54.20;;;;;;5051688;28;20194;-69
2024/02/06 06:34:42;;;;;;;1.70;1.30;;;21.10;54.20;;;;;;5050067;28;20834;-68
2024/02/06 06:37:07;;;;;;;1.90;1.40;;;21.10;54.10;;;;;;5051877;28;20685;-68
2024/02/06 06:39:33;;;;;;;1.90;1.57;;;21.10;54.10;;;;;;5051641;28;20429;-68
2024/02/06 06:41:59;;;;;;;3.80;1.43;;;21.10;54.10;;;;;;5051982;28;20187;-67
2024/02/06 06:44:25;;;;;;;3.07;2.67;;;21.20;54.20;;;;;;5051729;28;20417;-68
2024/02/06 06:46:51;;;;;;;1.60;1.20;;;21.20;54.10;;;;;;5051455;28;20414;-69
2024/02/06 06:49:16;;;;;;;1.87;1.67;;;21.20;54.10;;;;;;5051939;28;20262;-68
2024/02/06 06:51:43;;;;;;;1.67;1.30;;;21.20;54.10;;;;;;5052288;28;20199;-68
2024/02/06 06:54:09;;;;;;;1.97;1.40;;;21.20;54.10;;;;;;5051622;28;20167;-69
2024/02/06 06:56:34;;;;;;;2.60;1.80;;;21.20;54.10;;;;;;5051355;28;20985;-69
2024/02/06 06:59:00;;;;;;;1.80;1.50;;;21.20;54.10;;;;;;5051886;28;20290;-69
2024/02/06 07:01:26;;;;;;;2.37;1.27;;;21.20;54.10;;;;;;5051900;28;20233;-68
2024/02/06 07:03:51;;;;;;;1.83;1.50;;;21.20;54.10;;;;;;5051673;28;20232;-68
2024/02/06 07:06:17;;;;;;;3.87;1.70;;;21.30;54.10;;;;;;5050213;28;20235;-68
2024/02/06 07:08:43;;;;;;;3.07;1.43;;;21.30;54.20;;;;;;5051844;28;20187;-69
2024/02/06 07:11:09;;;;;;;2.17;1.40;;;21.30;54.10;;;;;;5051214;28;20218;-69
2024/02/06 07:13:35;;;;;;;1.83;1.70;;;21.30;54.20;;;;;;5051645;28;20433;-68
2024/02/06 07:16:01;;;;;;;1.80;1.33;;;21.30;54.20;;;;;;5051037;28;20702;-69
2024/02/06 07:18:26;;;;;;;2.37;1.33;;;21.30;54.20;;;;;;5050717;28;20202;-69
2024/02/06 07:20:52;;;;;;;1.83;1.37;;;21.30;54.20;;;;;;5050767;28;20437;-69
2024/02/06 07:23:18;;;;;;;3.70;1.60;;;21.30;54.20;;;;;;5052352;28;20179;-68
2024/02/06 07:25:43;;;;;;;2.10;1.77;;;21.30;54.20;;;;;;5054653;28;20207;-69
2024/02/06 07:28:09;;;;;;;2.20;1.73;;;21.30;54.20;;;;;;5055252;28;20286;-69
2024/02/06 07:30:34;;;;;;;1.97;1.40;;;21.30;54.20;;;;;;5054353;28;20686;-68
2024/02/06 07:33:00;;;;;;;1.53;1.10;;;21.30;54.20;;;;;;5054416;28;20183;-69
2024/02/06 07:35:26;;;;;;;1.83;1.13;;;21.30;54.30;;;;;;5054662;28;20207;-69
2024/02/06 07:37:51;;;;;;;1.73;1.23;;;21.30;54.30;;;;;;5054936;28;20171;-68
2024/02/06 07:40:17;;;;;;;2.70;1.30;;;21.30;54.30;;;;;;5054565;28;20226;-69
2024/02/06 07:42:45;;;;;;;2.07;1.50;;;21.30;54.20;;;;;;5054491;28;20190;-69
2024/02/06 07:45:11;;;;;;;1.60;1.23;;;21.30;54.20;;;;;;5054680;28;20180;-69
2024/02/06 07:47:39;;;;;;;2.27;1.60;;;21.30;54.20;;;;;;5054371;28;20426;-68
2024/02/06 07:50:05;;;;;;;2.37;1.60;;;21.30;54.20;;;;;;5054252;28;20500;-68
2024/02/06 07:52:31;;;;;;;1.97;1.30;;;21.30;54.30;;;;;;5054210;28;20421;-69
2024/02/06 07:54:56;;;;;;;2.00;1.60;;;21.30;54.30;;;;;;5054335;28;20578;-68
2024/02/06 07:57:22;;;;;;;2.33;1.40;;;21.30;54.20;;;;;;5054405;28;20175;-69
2024/02/06 07:59:47;;;;;;;3.17;1.70;;;21.30;54.20;;;;;;5053189;28;20233;-69
2024/02/06 08:02:13;;;;;;;1.90;1.57;;;21.30;54.20;;;;;;5054363;28;20218;-67
2024/02/06 08:04:38;;;;;;;1.60;1.43;;;21.30;54.30;;;;;;5054324;28;20182;-69
2024/02/06 08:07:04;;;;;;;1.87;1.20;;;21.30;54.20;;;;;;5053709;28;20175;-69
2024/02/06 08:09:30;;;;;;;2.63;1.47;;;21.30;54.20;;;;;;5054102;28;20226;-69
2024/02/06 08:11:56;;;;;;;1.30;1.10;;;21.30;54.20;;;;;;5054467;28;20260;-68
2024/02/06 08:14:21;;;;;;;2.50;1.50;;;21.30;54.20;;;;;;5053593;28;20229;-70
2024/02/06 08:16:47;;;;;;;1.93;1.40;;;21.30;54.30;;;;;;5053921;28;20252;-68
2024/02/06 08:19:13;;;;;;;2.93;1.57;;;21.30;54.30;;;;;;5054283;28;20179;-69
2024/02/06 08:21:39;;;;;;;1.93;1.33;;;21.30;54.20;;;;;;5053582;28;20203;-69
2024/02/06 08:24:06;;;;;;;1.50;1.20;;;21.30;54.30;;;;;;5053955;28;20406;-68
2024/02/06 08:26:31;;;;;;;1.40;1.13;;;21.30;54.30;;;;;;5054195;28;20183;-68
2024/02/06 08:28:57;;;;;;;3.53;1.80;;;21.30;54.30;;;;;;5053868;28;20867;-69
2024/02/06 08:31:22;;;;;;;1.93;1.40;;;21.30;54.20;;;;;;5053515;28;20696;-69
2024/02/06 08:33:50;;;;;;;3.57;1.90;;;21.30;54.30;;;;;;5053638;28;20209;-69
2024/02/06 08:36:17;;;;;;;2.90;1.50;;;21.30;54.20;;;;;;5053137;28;20248;-68
2024/02/06 08:38:43;;;;;;;3.40;1.57;;;21.30;54.20;;;;;;5052202;28;20492;-68
2024/02/06 08:41:08;;;;;;;2.00;1.43;;;21.30;54.20;;;;;;5053284;28;20443;-68
2024/02/06 08:43:34;;;;;;;1.90;1.60;;;21.40;54.40;;;;;;5053551;28;20212;-69
2024/02/06 08:46:00;;;;;;;2.30;1.37;;;21.30;54.30;;;;;;5053099;28;20198;-69
2024/02/06 08:48:28;;;;;;;1.40;1.17;;;21.30;54.30;;;;;;5053193;28;20184;-69
2024/02/06 08:50:57;;;;;;;1.93;1.47;;;21.30;54.30;;;;;;5053008;28;20183;-69
2024/02/06 08:53:22;;;;;;;1.50;1.20;;;21.30;54.30;;;;;;5053106;28;20428;-69
2024/02/06 08:55:48;;;;;;;2.40;1.50;;;21.30;54.30;;;;;;5052879;28;20449;-70
2024/02/06 08:58:14;;;;;;;1.70;1.20;;;21.30;54.30;;;;;;5053080;28;20171;-69
2024/02/06 09:00:40;;;;;;;1.97;1.20;;;21.30;54.30;;;;;;5052622;28;20201;-68
2024/02/06 09:03:06;;;;;;;1.60;1.10;;;21.30;54.30;;;;;;5052431;28;20507;-68
2024/02/06 09:05:32;;;;;;;1.90;1.20;;;21.30;54.30;;;;;;5052520;28;20510;-69
2024/02/06 09:07:58;;;;;;;2.37;1.40;;;21.30;54.30;;;;;;5052441;28;20892;-69
2024/02/06 09:10:24;;;;;;;1.60;1.30;;;21.30;54.30;;;;;;5052788;28;20405;-68
2024/02/06 09:12:51;;;;;;;1.60;1.20;;;21.30;54.30;;;;;;5052930;28;20181;-68
2024/02/06 09:15:17;;;;;;;1.50;1.17;;;21.40;54.40;;;;;;5052525;28;20464;-69
2024/02/06 09:17:42;;;;;;;1.67;1.20;;;21.30;54.30;;;;;;5052400;28;20410;-69
2024/02/06 09:20:09;;;;;;;2.30;1.33;;;21.30;54.40;;;;;;5052181;28;20493;-67
2024/02/06 09:22:37;;;;;;;1.70;1.20;;;21.30;54.40;;;;;;5052302;28;20741;-68
2024/02/06 09:25:05;;;;;;;1.90;1.30;;;21.30;54.40;;;;;;5052781;28;20464;-69
2024/02/06 09:27:31;;;;;;;1.60;1.23;;;21.40;54.40;;;;;;5052293;28;20401;-69
2024/02/06 09:29:58;;;;;;;1.20;1.00;;;21.30;54.40;;;;;;5052176;28;20428;-67
2024/02/06 09:32:24;;;;;;;1.43;1.20;;;21.30;54.40;;;;;;5052181;28;20432;-68
2024/02/06 09:34:49;;;;;;;2.60;1.10;;;21.30;54.40;;;;;;5050994;28;20417;-68
2024/02/06 09:37:15;;;;;;;2.00;1.40;;;21.30;54.40;;;;;;5052276;28;20179;-69
2024/02/06 09:39:42;;;;;;;1.37;1.10;;;21.30;54.40;;;;;;5050995;28;20179;-69
2024/02/06 09:42:08;;;;;;;2.37;1.50;;;21.30;54.40;;;;;;5052474;28;20433;-69
2024/02/06 09:44:35;;;;;;;1.77;1.20;;;21.40;54.50;;;;;;5052393;28;20414;-69
2024/02/06 09:47:02;;;;;;;1.70;1.30;;;21.30;54.40;;;;;;5051987;28;20871;-69
2024/02/06 09:49:28;;;;;;;1.63;1.50;;;21.40;54.50;;;;;;5052087;28;20401;-68
2024/02/06 09:51:54;;;;;;;1.30;1.20;;;21.40;54.50;;;;;;5052592;28;20430;-68
2024/02/06 09:54:25;;;;;;;1.20;1.00;;;21.40;54.50;;;;;;5052030;28;20416;-70
2024/02/06 09:56:55;;;;;;;1.40;1.30;;;21.30;54.40;;;;;;5052071;28;20977;-68
2024/02/06 09:59:22;;;;;;;2.13;1.40;;;21.30;54.50;;;;;;5052463;28;20401;-67
2024/02/06 10:01:51;;;;;;;1.90;1.40;;;21.40;54.60;;;;;;5052726;28;20433;-68
2024/02/06 10:04:20;;;;;;;1.83;1.40;;;21.40;54.60;;;;;;5051852;28;20449;-69
2024/02/06 10:06:47;;;;;;;1.57;1.40;;;21.40;54.60;;;;;;5052135;28;20459;-69
2024/02/06 10:09:13;;;;;;;1.60;1.10;;;21.30;54.50;;;;;;5051800;28;20412;-68
2024/02/06 10:11:39;;;;;;;1.40;1.20;;;21.40;54.60;;;;;;5051412;28;20936;-69
2024/02/06 10:14:05;;;;;;;1.80;1.20;;;21.30;54.50;;;;;;5051789;28;20923;-69
2024/02/06 10:16:35;;;;;;;1.97;1.20;;;21.40;54.50;;;;;;5051403;28;20472;-68
2024/02/06 10:19:00;;;;;;;1.80;1.60;;;21.30;54.50;;;;;;5051663;28;20402;-68
2024/02/06 10:21:27;;;;;;;2.10;1.30;;;21.40;54.60;;;;;;5051482;28;20456;-68
2024/02/06 10:24:00;;;;;;;1.37;1.17;;;21.40;54.60;;;;;;5051447;28;20213;-68
2024/02/06 10:26:26;;;;;;;1.30;1.00;;;21.40;54.60;;;;;;5051891;28;20476;-67
2024/02/06 10:29:06;;;;;;;1.43;1.27;;;21.40;54.60;;;;;;5051917;28;20811;-68
2024/02/06 10:31:31;;;;;;;2.53;1.30;;;21.40;54.60;;;;;;5051600;28;20233;-68
2024/02/06 10:34:11;;;;;;;1.87;1.77;;;21.40;54.60;;;;;;5051704;28;20437;-68
2024/02/06 10:36:37;;;;;;;1.97;1.17;;;21.40;54.60;;;;;;5051585;28;21101;-68
2024/02/06 10:39:04;;;;;;;1.50;1.40;;;21.30;54.50;;;;;;5051638;28;20405;-68
2024/02/06 10:41:29;;;;;;;2.10;1.40;;;21.30;54.60;;;;;;5049828;28;20457;-69
2024/02/06 10:43:55;;;;;;;2.20;1.27;;;21.40;54.60;;;;;;5051745;28;20444;-68
2024/02/06 10:46:23;;;;;;;2.57;1.50;;;21.30;54.60;;;;;;5051811;28;20209;-68
2024/02/06 10:48:53;;;;;;;1.70;1.43;;;21.30;54.60;;;;;;5052003;28;20309;-68
2024/02/06 10:51:24;;;;;;;1.60;1.30;;;21.40;54.60;;;;;;5050892;28;20437;-69
2024/02/06 10:53:50;;;;;;;4.10;1.50;;;21.40;54.60;;;;;;5051712;28;20417;-68
2024/02/06 10:56:18;;;;;;;2.47;1.30;;;21.30;54.50;;;;;;5051380;28;21166;-67
2024/02/06 10:58:57;;;;;;;2.03;1.10;;;21.30;54.60;;;;;;5036050;28;20206;-67
2024/02/06 11:01:29;;;;;;;2.30;1.60;;;21.30;54.60;;;;;;5055522;28;20425;-68
2024/02/06 11:04:01;;;;;;;2.30;1.43;;;21.30;54.60;;;;;;5055444;28;20389;-68
2024/02/06 11:06:35;;;;;;;1.73;1.50;;;21.30;54.60;;;;;;5055082;28;20519;-68
2024/02/06 11:09:07;;;;;;;4.20;2.13;;;21.30;54.60;;;;;;5054783;28;21248;-67
2024/02/06 11:11:34;;;;;;;1.90;1.30;;;21.30;54.60;;;;;;5054974;28;20440;-68
2024/02/06 11:14:02;;;;;;;1.63;1.33;;;21.30;54.60;;;;;;5054856;28;20420;-67
2024/02/06 11:16:33;;;;;;;5.33;1.80;;;21.30;54.60;;;;;;5054525;28;20464;-69
2024/02/06 11:19:16;;;;;;;2.63;1.37;;;21.30;54.60;;;;;;5054494;28;20883;-68
2024/02/06 11:21:48;;;;;;;2.67;1.70;;;21.30;54.60;;;;;;5054488;28;20429;-68
2024/02/06 11:24:16;;;;;;;2.00;1.33;;;21.30;54.60;;;;;;5054210;28;20389;-68
2024/02/06 11:26:43;;;;;;;2.77;1.50;;;21.30;54.60;;;;;;5054315;28;20503;-67
2024/02/06 11:29:09;;;;;;;2.10;1.50;;;21.30;54.60;;;;;;5054176;28;20414;-68
2024/02/06 11:31:36;;;;;;;2.70;1.00;;;21.30;54.60;;;;;;5052919;28;20433;-68
2024/02/06 11:34:17;;;;;;;2.27;1.33;;;21.40;54.70;;;;;;5054639;28;20847;-68
2024/02/06 11:36:43;;;;;;;2.23;1.40;;;21.40;54.70;;;;;;5054369;28;20463;-68
2024/02/06 11:39:10;;;;;;;2.87;1.30;;;21.30;54.60;;;;;;5054477;28;20405;-68
2024/02/06 11:41:36;;;;;;;2.73;1.40;;;21.30;54.60;;;;;;5052853;28;20569;-68
2024/02/06 11:44:10;;;;;;;3.10;1.90;;;21.30;54.60;;;;;;5054444;28;20414;-68
2024/02/06 11:46:43;;;;;;;3.10;1.73;;;21.40;54.70;;;;;;5054527;28;20409;-68
2024/02/06 11:49:08;;;;;;;1.87;1.30;;;21.40;54.70;;;;;;5054401;28;20496;-68
2024/02/06 11:51:34;;;;;;;2.60;1.50;;;21.40;54.70;;;;;;5053881;28;20576;-67
2024/02/06 11:54:12;;;;;;;3.70;1.63;;;21.40;54.70;;;;;;5053959;28;20173;-68
2024/02/06 11:56:41;;;;;;;1.67;1.50;;;21.40;54.70;;;;;;5053729;28;20198;-69
2024/02/06 11:59:08;;;;;;;3.10;1.73;;;21.40;54.70;;;;;;5054127;28;20409;-69
2024/02/06 12:01:34;;;;;;;2.70;1.80;;;21.30;54.60;;;;;;5053879;28;20421;-68
2024/02/06 12:04:02;;;;;;;3.20;1.70;;;21.40;54.70;;;;;;5054202;28;20463;-67
2024/02/06 12:06:28;;;;;;;3.57;1.80;;;21.40;54.70;;;;;;5054252;28;20171;-68
2024/02/06 12:09:04;;;;;;;7.40;2.90;;;21.40;54.70;;;;;;5053656;28;20488;-68
2024/02/06 12:11:39;;;;;;;8.90;2.40;;;21.40;54.70;;;;;;5053901;28;20455;-69
2024/02/06 12:14:05;;;;;;;5.10;1.90;;;21.40;54.70;;;;;;5054033;28;20760;-68
2024/02/06 12:16:31;;;;;;;3.90;1.67;;;21.40;54.70;;;;;;5053508;28;20473;-68
2024/02/06 12:18:58;;;;;;;2.30;1.50;;;21.40;54.70;;;;;;5054228;28;20183;-68
2024/02/06 12:21:24;;;;;;;2.87;1.83;;;21.40;54.70;;;;;;5053690;28;20194;-68
2024/02/06 12:24:04;;;;;;;3.90;1.90;;;21.30;54.60;;;;;;5053874;28;20416;-68
2024/02/06 12:26:31;;;;;;;5.83;2.20;;;21.40;54.70;;;;;;5053636;28;20397;-67
2024/02/06 12:29:02;;;;;;;6.00;2.53;;;21.40;54.70;;;;;;5053438;28;20417;-66
2024/02/06 12:31:28;;;;;;;4.90;2.97;;;21.40;54.70;;;;;;5053543;28;20432;-67
2024/02/06 12:33:54;;;;;;;4.00;2.40;;;21.30;54.60;;;;;;5053769;28;20414;-68
2024/02/06 12:36:20;;;;;;;9.27;3.40;;;21.30;54.60;;;;;;5053333;28;20564;-68
2024/02/06 12:38:52;;;;;;;5.60;2.67;;;21.30;54.60;;;;;;5053861;28;20542;-67
2024/02/06 12:41:18;;;;;;;8.60;3.70;;;21.40;54.70;;;;;;5053424;28;20677;-69
2024/02/06 12:43:43;;;;;;;7.07;3.20;;;21.30;54.60;;;;;;5053697;28;20413;-66